Time;durP1;ratioP1;P1;durP2;ratioP2;P2;SDS_P1;SDS_P2;PMS_P1;PMS_P2;Temp;Humidity;BMP_temperature;BMP_pressure;BME280_temperature;BME280_humidity;BME280_pressure;Samples;Min_cycle;Max_cycle;Signal;HPM_P1;HPM_P2
2023/07/10 00:02:29;;;;;;;0.70;0.30;;;15.80;99.90;;;;;;4997282;28;20198;-87
2023/07/10 00:05:02;;;;;;;0.75;0.32;;;15.90;99.90;;;;;;4996466;28;20194;-87
2023/07/10 00:07:37;;;;;;;0.32;0.30;;;16.00;99.90;;;;;;5010020;28;20224;-87
2023/07/10 00:10:10;;;;;;;4.07;0.55;;;16.10;99.90;;;;;;5010769;28;20620;-87
2023/07/10 00:12:46;;;;;;;1.55;0.40;;;16.20;99.90;;;;;;5013877;28;20194;-87
2023/07/10 00:15:20;;;;;;;0.35;0.22;;;16.20;99.90;;;;;;5013943;28;20201;-88
2023/07/10 00:17:53;;;;;;;2.40;0.30;;;16.20;99.90;;;;;;5019851;28;20202;-88
2023/07/10 00:20:26;;;;;;;0.63;0.30;;;16.30;99.90;;;;;;5014606;28;20688;-89
2023/07/10 00:22:57;;;;;;;0.40;0.40;;;16.30;99.90;;;;;;5013415;28;20693;-87
2023/07/10 00:25:28;;;;;;;1.27;0.40;;;16.30;99.90;;;;;;5015602;28;20221;-87
2023/07/10 00:28:02;;;;;;;3.92;0.32;;;16.30;99.90;;;;;;5012802;28;20218;-88
2023/07/10 00:30:33;;;;;;;1.90;0.43;;;16.40;99.90;;;;;;5012906;28;20553;-88
2023/07/10 00:33:08;;;;;;;1.25;0.35;;;16.40;99.90;;;;;;5010782;28;20547;-86
2023/07/10 00:35:39;;;;;;;0.60;0.40;;;16.50;99.90;;;;;;4996383;28;20193;-87
2023/07/10 00:38:23;;;;;;;0.32;0.30;;;16.60;99.90;;;;;;5013661;28;20204;-87
2023/07/10 00:40:54;;;;;;;0.32;0.30;;;16.70;99.90;;;;;;5012369;28;20248;-87
2023/07/10 00:43:38;;;;;;;0.40;0.25;;;16.80;99.90;;;;;;5013541;28;20221;-87
2023/07/10 00:46:19;;;;;;;2.10;0.50;;;16.80;99.90;;;;;;5014392;28;20190;-87
2023/07/10 00:48:54;;;;;;;1.45;0.70;;;16.90;99.90;;;;;;5014100;28;20226;-87
2023/07/10 00:51:30;;;;;;;0.85;0.30;;;16.90;99.90;;;;;;5012473;28;20653;-87
2023/07/10 00:54:02;;;;;;;0.20;0.10;;;17.00;99.90;;;;;;4999788;28;20221;-86
2023/07/10 00:56:45;;;;;;;1.88;0.20;;;17.10;99.90;;;;;;5013093;28;20206;-86
2023/07/10 00:59:28;;;;;;;0.98;0.38;;;17.10;99.90;;;;;;4994381;28;20556;-87
2023/07/10 01:02:25;;;;;;;1.27;0.40;;;17.20;99.90;;;;;;5001027;28;20189;-87
2023/07/10 01:05:03;;;;;;;0.77;0.30;;;17.30;99.90;;;;;;4969283;28;20210;-87
2023/07/10 01:07:40;;;;;;;0.80;0.20;;;17.40;99.90;;;;;;5012581;28;20233;-87
2023/07/10 01:10:14;;;;;;;0.10;0.10;;;17.30;99.90;;;;;;5010920;28;20201;-88
2023/07/10 01:12:49;;;;;;;0.47;0.10;;;17.30;99.90;;;;;;5012152;28;20204;-87
2023/07/10 01:15:22;;;;;;;1.08;0.20;;;17.40;99.90;;;;;;4997198;28;20213;-87
2023/07/10 01:17:54;;;;;;;1.65;0.20;;;17.40;99.90;;;;;;5009879;28;20194;-88
2023/07/10 01:20:43;;;;;;;3.05;0.40;;;17.40;99.90;;;;;;5009872;28;20245;-88
2023/07/10 01:23:18;;;;;;;0.60;0.32;;;17.50;99.90;;;;;;4994153;28;20212;-88
2023/07/10 01:25:54;;;;;;;5.25;0.40;;;17.60;99.90;;;;;;4994061;28;20206;-89
2023/07/10 01:28:27;;;;;;;2.47;0.40;;;17.60;99.90;;;;;;4993897;28;20653;-89
2023/07/10 01:31:03;;;;;;;0.60;0.40;;;17.60;99.90;;;;;;4994030;28;20249;-89
2023/07/10 01:33:43;;;;;;;0.50;0.25;;;17.60;99.90;;;;;;4988645;28;20198;-90
2023/07/10 01:36:16;;;;;;;0.75;0.40;;;17.60;99.90;;;;;;4999932;28;20206;-90
2023/07/10 01:38:51;;;;;;;2.17;0.30;;;17.70;99.90;;;;;;5009535;28;20195;-89
2023/07/10 01:41:32;;;;;;;0.47;0.20;;;17.80;99.90;;;;;;5027850;28;20188;-88
2023/07/10 01:44:04;;;;;;;0.47;0.20;;;17.80;99.90;;;;;;5014768;28;20196;-88
2023/07/10 01:46:36;;;;;;;0.82;0.30;;;17.90;99.90;;;;;;5012895;28;20573;-88
2023/07/10 01:49:08;;;;;;;1.77;0.20;;;17.90;99.90;;;;;;5012052;28;20226;-89
2023/07/10 01:51:40;;;;;;;1.48;0.43;;;18.00;99.90;;;;;;5013124;28;20202;-89
2023/07/10 01:54:19;;;;;;;0.98;0.20;;;18.00;99.90;;;;;;5013109;28;20232;-89
2023/07/10 01:56:52;;;;;;;2.33;0.40;;;18.10;99.90;;;;;;5005210;28;20197;-89
2023/07/10 01:59:23;;;;;;;0.95;0.38;;;18.10;99.90;;;;;;5026845;28;20197;-88
2023/07/10 02:01:55;;;;;;;0.52;0.25;;;18.00;99.90;;;;;;5028842;28;20257;-88
2023/07/10 02:04:30;;;;;;;3.03;0.40;;;18.00;99.90;;;;;;5021622;28;20250;-88
2023/07/10 02:07:02;;;;;;;0.47;0.25;;;18.00;99.90;;;;;;5016454;28;20290;-89
2023/07/10 02:09:37;;;;;;;1.40;0.30;;;18.20;99.90;;;;;;4997488;28;20598;-89
2023/07/10 02:12:08;;;;;;;1.17;0.30;;;18.20;99.90;;;;;;5002945;28;20208;-87
2023/07/10 02:14:40;;;;;;;1.23;0.35;;;18.30;99.90;;;;;;5002307;28;20529;-88
2023/07/10 02:17:11;;;;;;;1.58;0.20;;;18.30;99.90;;;;;;5016422;28;20205;-88
2023/07/10 02:19:43;;;;;;;0.65;0.38;;;18.40;99.90;;;;;;5039571;28;20260;-87
2023/07/10 02:22:17;;;;;;;1.90;0.22;;;18.40;99.90;;;;;;5038635;28;20193;-89
2023/07/10 02:24:51;;;;;;;1.60;0.47;;;18.50;99.90;;;;;;5004422;28;20277;-87
2023/07/10 02:27:22;;;;;;;0.95;0.30;;;18.50;99.90;;;;;;5027855;28;20213;-89
2023/07/10 02:29:54;;;;;;;0.90;0.40;;;18.40;99.90;;;;;;5016054;28;20261;-89
2023/07/10 02:32:25;;;;;;;1.10;0.35;;;18.40;99.90;;;;;;5006457;28;20217;-89
2023/07/10 02:34:58;;;;;;;1.38;0.43;;;18.50;99.90;;;;;;5021848;28;20575;-90
2023/07/10 02:37:31;;;;;;;0.40;0.38;;;18.40;99.90;;;;;;5019310;28;20201;-90
2023/07/10 02:40:05;;;;;;;1.45;0.38;;;18.60;99.90;;;;;;5015573;28;20206;-90
2023/07/10 02:42:36;;;;;;;1.38;0.40;;;18.60;99.90;;;;;;5000112;28;20225;-89
2023/07/10 02:45:09;;;;;;;2.33;0.80;;;18.70;99.90;;;;;;5011871;28;20195;-89
2023/07/10 02:47:41;;;;;;;2.90;0.70;;;18.70;99.90;;;;;;5017783;28;20582;-93
2023/07/10 02:50:16;;;;;;;1.27;0.65;;;18.70;99.90;;;;;;4994861;28;20217;-90
2023/07/10 02:52:48;;;;;;;3.75;0.60;;;18.80;99.90;;;;;;5019269;28;20587;-93
2023/07/10 02:55:27;;;;;;;3.38;0.60;;;18.80;99.90;;;;;;5010638;28;20209;-93
2023/07/10 02:58:03;;;;;;;2.20;0.40;;;19.00;99.90;;;;;;4991276;28;20203;-92
2023/07/10 03:00:35;;;;;;;2.22;0.50;;;19.00;99.90;;;;;;5003486;28;20205;-92
2023/07/10 03:03:08;;;;;;;1.15;0.57;;;18.90;99.90;;;;;;4982787;28;20203;-92
2023/07/10 03:05:39;;;;;;;1.00;0.50;;;18.90;99.90;;;;;;5002134;28;20203;-92
2023/07/10 03:08:14;;;;;;;1.10;0.50;;;18.90;99.90;;;;;;5019444;28;20209;-92
2023/07/10 03:10:50;;;;;;;1.13;0.40;;;19.00;99.90;;;;;;5013870;28;20216;-86
2023/07/10 03:13:23;;;;;;;1.23;0.40;;;19.10;99.90;;;;;;5016327;28;20220;-87
2023/07/10 03:16:06;;;;;;;1.55;0.60;;;19.10;99.90;;;;;;5014952;28;20202;-87
2023/07/10 03:18:40;;;;;;;1.05;0.55;;;19.20;99.90;;;;;;5017165;28;20226;-87
2023/07/10 03:21:11;;;;;;;1.80;0.50;;;19.20;99.90;;;;;;5031559;28;20687;-82
2023/07/10 03:23:42;;;;;;;1.58;0.55;;;19.20;99.90;;;;;;5033656;28;20209;-88
2023/07/10 03:26:17;;;;;;;1.02;0.55;;;19.10;99.90;;;;;;5038472;28;20197;-89
2023/07/10 03:28:50;;;;;;;2.45;0.50;;;19.10;99.30;;;;;;5037047;28;20221;-88
2023/07/10 03:31:22;;;;;;;0.80;0.35;;;19.00;99.80;;;;;;5032464;28;20206;-89
2023/07/10 03:33:54;;;;;;;0.77;0.40;;;19.00;99.90;;;;;;5034887;28;20190;-84
2023/07/10 03:36:27;;;;;;;1.15;0.52;;;19.00;99.90;;;;;;5025307;28;20773;-86
2023/07/10 03:38:58;;;;;;;1.88;0.55;;;19.10;99.90;;;;;;5013076;28;20197;-86
2023/07/10 03:41:32;;;;;;;2.55;0.43;;;19.10;99.90;;;;;;5006130;28;20205;-86
2023/07/10 03:44:03;;;;;;;1.02;0.40;;;19.20;99.90;;;;;;5016717;28;20202;-85
2023/07/10 03:46:34;;;;;;;2.15;0.40;;;19.20;99.90;;;;;;5016437;28;20661;-85
2023/07/10 03:49:05;;;;;;;1.17;0.43;;;19.30;99.90;;;;;;5013397;28;20244;-85
2023/07/10 03:51:36;;;;;;;1.00;0.50;;;19.20;99.30;;;;;;5015571;28;20187;-85
2023/07/10 03:54:09;;;;;;;0.68;0.60;;;19.30;99.90;;;;;;5000096;28;20869;-85
2023/07/10 03:56:42;;;;;;;0.98;0.50;;;19.20;99.30;;;;;;4995845;28;20686;-86
2023/07/10 03:59:13;;;;;;;5.45;0.50;;;19.30;99.30;;;;;;5013570;28;20201;-86
2023/07/10 04:01:44;;;;;;;0.65;0.40;;;19.30;98.70;;;;;;5014446;28;20204;-87
2023/07/10 04:04:15;;;;;;;4.13;0.60;;;19.30;98.80;;;;;;5014356;28;20212;-85
2023/07/10 04:06:48;;;;;;;1.50;0.70;;;19.20;98.70;;;;;;5000120;28;20229;-86
2023/07/10 04:09:19;;;;;;;1.17;0.60;;;19.20;98.80;;;;;;4994439;28;20231;-86
2023/07/10 04:11:52;;;;;;;3.50;0.60;;;19.10;98.30;;;;;;4998808;28;20546;-86
2023/07/10 04:14:24;;;;;;;1.13;0.40;;;19.10;98.40;;;;;;5011387;28;20222;-85
2023/07/10 04:16:56;;;;;;;2.53;0.40;;;19.20;99.00;;;;;;5013711;28;20186;-85
2023/07/10 04:19:28;;;;;;;2.38;0.35;;;19.30;98.90;;;;;;5013878;28;20598;-85
2023/07/10 04:21:59;;;;;;;1.65;0.60;;;19.30;98.00;;;;;;5003785;28;20588;-85
2023/07/10 04:24:30;;;;;;;1.67;0.50;;;19.30;98.20;;;;;;5013692;28;20281;-84
2023/07/10 04:27:05;;;;;;;0.90;0.40;;;19.30;98.30;;;;;;5003695;28;20206;-86
2023/07/10 04:29:36;;;;;;;1.83;0.50;;;19.40;97.30;;;;;;5012856;28;20684;-86
2023/07/10 04:32:08;;;;;;;2.42;0.57;;;19.40;97.10;;;;;;5006713;28;20194;-85
2023/07/10 04:34:42;;;;;;;1.30;0.50;;;19.40;97.30;;;;;;5010385;28;20198;-87
2023/07/10 04:37:14;;;;;;;2.92;0.40;;;19.40;97.60;;;;;;4994964;28;20210;-87
2023/07/10 04:39:47;;;;;;;2.35;0.57;;;19.50;96.90;;;;;;4995909;28;20203;-86
2023/07/10 04:42:21;;;;;;;0.50;0.50;;;19.40;96.90;;;;;;5012499;28;20684;-87
2023/07/10 04:44:54;;;;;;;1.38;0.50;;;19.50;97.00;;;;;;5000997;28;20205;-87
2023/07/10 04:47:25;;;;;;;2.25;0.80;;;19.50;97.50;;;;;;5014189;28;20200;-86
2023/07/10 04:49:57;;;;;;;1.95;0.50;;;19.50;96.80;;;;;;5018651;28;20236;-87
2023/07/10 04:52:28;;;;;;;3.03;0.47;;;19.50;97.50;;;;;;4980811;28;20295;-86
2023/07/10 04:55:00;;;;;;;1.92;0.45;;;19.60;97.10;;;;;;4966103;28;20209;-86
2023/07/10 04:57:35;;;;;;;2.00;0.45;;;19.60;96.80;;;;;;4967101;28;20218;-86
2023/07/10 05:00:07;;;;;;;2.80;0.50;;;19.60;96.50;;;;;;4975591;28;20209;-87
2023/07/10 05:02:38;;;;;;;1.98;0.50;;;19.60;96.80;;;;;;4963115;28;20544;-86
2023/07/10 05:05:11;;;;;;;0.80;0.50;;;19.60;96.60;;;;;;4965244;28;20192;-85
2023/07/10 05:07:42;;;;;;;1.23;0.47;;;19.60;96.10;;;;;;4974563;28;20237;-86
2023/07/10 05:10:15;;;;;;;1.63;0.60;;;19.60;96.10;;;;;;4968378;28;20233;-87
2023/07/10 05:12:50;;;;;;;1.75;0.50;;;19.50;96.00;;;;;;4961914;28;20211;-88
2023/07/10 05:15:24;;;;;;;1.40;0.60;;;19.60;95.90;;;;;;4955321;29;20211;-86
2023/07/10 05:17:56;;;;;;;0.70;0.40;;;19.60;94.20;;;;;;4973296;28;20365;-87
2023/07/10 05:20:31;;;;;;;2.13;0.50;;;19.60;94.40;;;;;;4980531;28;20544;-87
2023/07/10 05:23:02;;;;;;;2.78;1.00;;;19.60;93.80;;;;;;4966112;28;20565;-87
2023/07/10 05:25:34;;;;;;;0.82;0.50;;;19.70;93.90;;;;;;4993333;28;20213;-86
2023/07/10 05:28:10;;;;;;;0.63;0.50;;;19.70;93.30;;;;;;4984035;28;20206;-87
2023/07/10 05:30:41;;;;;;;2.88;0.50;;;19.80;94.00;;;;;;4972970;28;20238;-86
2023/07/10 05:33:12;;;;;;;0.90;0.40;;;19.80;93.40;;;;;;4974205;28;20290;-86
2023/07/10 05:35:53;;;;;;;2.90;0.63;;;19.80;93.90;;;;;;4973906;28;20206;-85
2023/07/10 05:38:25;;;;;;;1.48;0.50;;;19.80;94.20;;;;;;4964929;28;20204;-86
2023/07/10 05:40:56;;;;;;;3.38;0.80;;;19.80;94.20;;;;;;4953967;29;20214;-86
2023/07/10 05:43:30;;;;;;;1.52;0.70;;;19.90;92.50;;;;;;4967942;28;20309;-86
2023/07/10 05:46:02;;;;;;;1.85;0.60;;;19.90;92.10;;;;;;4963170;28;20194;-86
2023/07/10 05:48:33;;;;;;;0.80;0.50;;;19.90;91.50;;;;;;4966724;28;20195;-86
2023/07/10 05:51:05;;;;;;;0.40;0.40;;;19.80;92.00;;;;;;4971796;28;20233;-86
2023/07/10 05:53:38;;;;;;;0.93;0.40;;;20.00;92.30;;;;;;4992590;28;20241;-87
2023/07/10 05:56:09;;;;;;;0.60;0.50;;;19.90;91.70;;;;;;5003713;28;20203;-86
2023/07/10 05:58:43;;;;;;;1.30;0.73;;;19.90;91.40;;;;;;5003106;28;20298;-85
2023/07/10 06:01:15;;;;;;;3.08;0.95;;;19.90;91.60;;;;;;5011210;28;20253;-85
2023/07/10 06:03:46;;;;;;;3.28;1.30;;;19.90;91.60;;;;;;5008945;28;20222;-86
2023/07/10 06:06:17;;;;;;;1.30;0.50;;;19.80;91.40;;;;;;5009603;28;20182;-86
2023/07/10 06:08:48;;;;;;;1.58;0.63;;;19.90;91.70;;;;;;5000130;28;20221;-85
2023/07/10 06:11:20;;;;;;;1.48;0.68;;;19.90;91.80;;;;;;4992123;28;20218;-88
2023/07/10 06:13:58;;;;;;;2.65;0.90;;;20.00;91.80;;;;;;4984628;28;20198;-85
2023/07/10 06:16:30;;;;;;;0.70;0.50;;;20.00;91.50;;;;;;4994758;28;20191;-86
2023/07/10 06:19:01;;;;;;;1.00;0.60;;;20.00;91.40;;;;;;4978085;28;20221;-86
2023/07/10 06:21:32;;;;;;;0.85;0.50;;;20.10;91.30;;;;;;4976690;28;20209;-87
2023/07/10 06:24:03;;;;;;;0.98;0.57;;;20.10;91.00;;;;;;4980935;28;20207;-85
2023/07/10 06:26:36;;;;;;;2.00;0.47;;;20.20;91.30;;;;;;4995569;28;20206;-87
2023/07/10 06:29:11;;;;;;;2.15;0.85;;;20.30;92.80;;;;;;4997624;28;20696;-86
2023/07/10 06:31:42;;;;;;;2.38;0.60;;;20.30;93.00;;;;;;5001264;28;20273;-87
2023/07/10 06:34:15;;;;;;;1.52;0.70;;;20.30;91.40;;;;;;5017419;28;20198;-86
2023/07/10 06:36:46;;;;;;;2.50;0.82;;;20.10;91.10;;;;;;5002840;28;20201;-86
2023/07/10 06:39:17;;;;;;;1.45;0.63;;;20.10;91.20;;;;;;4986129;28;20219;-86
2023/07/10 06:41:49;;;;;;;1.05;0.75;;;19.90;91.20;;;;;;4992223;28;20210;-87
2023/07/10 06:44:22;;;;;;;3.05;0.73;;;19.80;91.70;;;;;;4999297;28;20628;-86
2023/07/10 06:46:55;;;;;;;2.33;1.05;;;19.60;92.60;;;;;;4996658;28;20207;-87
2023/07/10 06:49:26;;;;;;;1.92;0.80;;;19.60;93.10;;;;;;4995309;28;20195;-86
2023/07/10 06:51:57;;;;;;;1.15;0.73;;;19.60;92.50;;;;;;4996342;28;20190;-85
2023/07/10 06:54:31;;;;;;;3.15;0.93;;;19.40;93.00;;;;;;4996285;28;20214;-86
2023/07/10 06:57:03;;;;;;;4.40;2.42;;;19.30;93.80;;;;;;4992935;28;20689;-84
2023/07/10 06:59:37;;;;;;;4.88;1.75;;;19.30;93.80;;;;;;4998144;28;20585;-89
2023/07/10 07:02:14;;;;;;;7.60;1.15;;;19.20;94.10;;;;;;5010339;28;20220;-92
2023/07/10 07:04:47;;;;;;;1.60;0.80;;;19.00;95.10;;;;;;5007541;28;20208;-84
2023/07/10 07:07:25;;;;;;;0.85;0.68;;;18.90;94.80;;;;;;4989296;28;20203;-92
2023/07/10 07:10:00;;;;;;;1.75;0.80;;;18.80;95.10;;;;;;4998124;28;20632;-91
2023/07/10 07:12:38;;;;;;;1.25;0.80;;;18.70;95.80;;;;;;5004290;28;20216;-90
2023/07/10 07:15:16;;;;;;;3.80;1.23;;;18.70;95.60;;;;;;5000169;28;20202;-90
2023/07/10 07:17:51;;;;;;;5.28;1.50;;;18.60;95.70;;;;;;4999426;28;20295;-90
2023/07/10 07:20:26;;;;;;;5.65;1.73;;;18.50;95.80;;;;;;4999456;28;20661;-92
2023/07/10 07:22:59;;;;;;;2.35;1.70;;;18.50;96.00;;;;;;5002191;28;20210;-91
2023/07/10 07:25:32;;;;;;;2.90;2.08;;;18.30;96.40;;;;;;5004635;28;20194;-91
2023/07/10 07:28:05;;;;;;;3.65;2.40;;;18.30;96.80;;;;;;5002131;28;20226;-93
2023/07/10 07:31:06;;;;;;;5.22;3.60;;;18.20;97.40;;;;;;4987425;28;20237;-90
2023/07/10 07:33:38;;;;;;;6.05;2.55;;;18.20;97.60;;;;;;5012132;28;20201;-90
2023/07/10 07:36:09;;;;;;;4.80;2.88;;;18.10;98.50;;;;;;5018457;28;20232;-90
2023/07/10 07:38:41;;;;;;;4.60;3.35;;;18.10;98.50;;;;;;5007047;28;20267;-91
2023/07/10 07:41:22;;;;;;;3.88;1.95;;;18.00;99.60;;;;;;4994683;28;20206;-92
2023/07/10 07:43:54;;;;;;;2.17;1.20;;;17.90;98.70;;;;;;5014282;28;20222;-89
2023/07/10 07:46:32;;;;;;;2.65;1.27;;;17.90;98.90;;;;;;5006762;28;20552;-91
2023/07/10 07:49:04;;;;;;;2.58;1.15;;;17.80;99.50;;;;;;4991455;28;20195;-90
2023/07/10 07:51:37;;;;;;;1.65;0.85;;;17.80;99.90;;;;;;5012120;28;20210;-91
2023/07/10 07:54:12;;;;;;;1.67;1.00;;;17.70;99.90;;;;;;5013809;28;20258;-92
2023/07/10 07:56:43;;;;;;;2.58;1.90;;;17.70;99.90;;;;;;5010635;28;20270;-93
2023/07/10 07:59:16;;;;;;;2.75;1.80;;;17.60;99.90;;;;;;5003565;28;20233;-92
2023/07/10 08:01:51;;;;;;;2.40;1.42;;;17.60;99.90;;;;;;5001023;28;20289;-91
2023/07/10 08:04:23;;;;;;;3.55;1.80;;;17.60;99.90;;;;;;4981871;28;20213;-92
2023/07/10 08:06:56;;;;;;;3.10;1.92;;;17.60;99.90;;;;;;4985277;28;20217;-92
2023/07/10 08:09:31;;;;;;;2.95;2.17;;;17.50;99.90;;;;;;5000933;28;20205;-92
2023/07/10 08:12:06;;;;;;;2.45;1.80;;;17.40;99.90;;;;;;4983911;28;20194;-91
2023/07/10 08:14:38;;;;;;;4.38;2.40;;;17.30;99.90;;;;;;4999116;28;20276;-92
2023/07/10 08:17:14;;;;;;;5.22;2.35;;;17.30;99.90;;;;;;4998611;28;20676;-90
2023/07/10 08:19:46;;;;;;;3.03;1.65;;;17.20;99.90;;;;;;4995470;28;20197;-91
2023/07/10 08:22:17;;;;;;;2.75;1.60;;;17.20;99.90;;;;;;4978103;28;20195;-92
2023/07/10 08:24:50;;;;;;;2.28;1.50;;;17.20;99.90;;;;;;4990792;28;20573;-92
2023/07/10 08:27:24;;;;;;;3.45;1.60;;;17.20;99.90;;;;;;4996960;28;20576;-92
2023/07/10 08:29:56;;;;;;;4.43;2.40;;;17.30;99.90;;;;;;4996367;28;20735;-90
2023/07/10 08:32:32;;;;;;;2.22;1.55;;;17.20;99.90;;;;;;4982809;28;20196;-91
2023/07/10 08:35:06;;;;;;;3.28;1.13;;;17.20;99.90;;;;;;4960548;28;20210;-93
2023/07/10 08:37:38;;;;;;;1.75;1.10;;;17.20;99.90;;;;;;4988562;28;20266;-92
2023/07/10 08:40:16;;;;;;;1.85;1.30;;;17.10;99.90;;;;;;4977515;28;20608;-92
2023/07/10 08:42:50;;;;;;;2.33;1.10;;;17.10;99.90;;;;;;4976942;28;20236;-93
2023/07/10 08:45:33;;;;;;;10.45;4.50;;;17.00;99.90;;;;;;4982882;28;20207;-93
2023/07/10 08:48:22;;;;;;;7.57;3.80;;;17.00;99.90;;;;;;4976733;28;20199;-93
2023/07/10 08:50:55;;;;;;;7.05;3.45;;;17.00;99.90;;;;;;4976643;28;20223;-94
2023/07/10 08:53:31;;;;;;;4.00;2.17;;;17.00;99.90;;;;;;4978105;28;20235;-93
2023/07/10 08:56:08;;;;;;;2.75;1.67;;;16.90;99.90;;;;;;4990615;28;20190;-92
2023/07/10 08:58:42;;;;;;;2.50;1.30;;;16.90;99.90;;;;;;4993877;28;20609;-94
2023/07/10 09:01:26;;;;;;;2.55;1.50;;;16.80;99.90;;;;;;4994011;28;20203;-91
2023/07/10 09:04:04;;;;;;;6.10;2.55;;;16.80;99.90;;;;;;4994593;28;20282;-93
2023/07/10 09:06:44;;;;;;;3.75;2.10;;;16.80;99.90;;;;;;4988363;28;20286;-93
2023/07/10 09:09:32;;;;;;;3.70;2.00;;;16.80;99.90;;;;;;4986360;28;20535;-92
2023/07/10 09:12:07;;;;;;;2.58;1.40;;;16.80;99.90;;;;;;4970311;28;20702;-93
2023/07/10 09:14:48;;;;;;;3.80;1.88;;;16.70;99.90;;;;;;4993517;28;20278;-93
2023/07/10 09:17:39;;;;;;;4.97;2.30;;;16.70;99.90;;;;;;4997664;28;20209;-92
2023/07/10 09:20:19;;;;;;;5.55;3.28;;;16.70;99.90;;;;;;4996959;28;20237;-94
2023/07/10 09:22:56;;;;;;;2.65;2.15;;;16.50;99.90;;;;;;4992377;28;20199;-94
2023/07/10 09:25:28;;;;;;;3.78;2.25;;;16.50;99.90;;;;;;4985331;28;20214;-94
2023/07/10 09:28:00;;;;;;;3.05;1.77;;;16.50;99.90;;;;;;4995642;28;20261;-93
2023/07/10 09:30:46;;;;;;;2.53;1.70;;;16.50;99.90;;;;;;4995910;28;20708;-93
2023/07/10 09:33:20;;;;;;;2.22;1.67;;;16.50;99.90;;;;;;5009289;28;20246;-93
2023/07/10 09:35:54;;;;;;;3.35;1.80;;;16.40;99.90;;;;;;5015020;28;20186;-93
2023/07/10 09:38:25;;;;;;;3.00;1.60;;;16.40;99.90;;;;;;4997381;28;20576;-94
2023/07/10 09:40:59;;;;;;;2.58;1.52;;;16.40;99.90;;;;;;4996089;28;20209;-93
2023/07/10 09:43:35;;;;;;;3.72;2.38;;;16.30;99.90;;;;;;4986930;28;20578;-94
2023/07/10 09:46:07;;;;;;;2.72;1.88;;;16.40;99.90;;;;;;4993143;28;20198;-92
2023/07/10 09:48:41;;;;;;;4.60;2.25;;;16.30;99.90;;;;;;4987862;28;20191;-92
2023/07/10 09:51:19;;;;;;;2.47;1.85;;;16.30;99.90;;;;;;4984389;28;20248;-93
2023/07/10 09:53:59;;;;;;;5.90;2.35;;;16.10;99.90;;;;;;4992769;28;20226;-93
2023/07/10 09:56:35;;;;;;;6.00;2.50;;;16.00;99.90;;;;;;4991739;28;20633;-93
2023/07/10 09:59:22;;;;;;;12.50;5.90;;;15.90;99.90;;;;;;4994542;28;20214;-93
2023/07/10 10:01:58;;;;;;;7.13;3.42;;;15.90;99.90;;;;;;4977526;28;20191;-94
2023/07/10 10:04:34;;;;;;;4.35;2.40;;;15.90;99.90;;;;;;4996380;28;20195;-93
2023/07/10 10:07:16;;;;;;;2.78;1.73;;;15.80;99.90;;;;;;4997286;28;20202;-90
2023/07/10 10:09:48;;;;;;;2.33;1.70;;;15.70;99.90;;;;;;4995684;28;20322;-91
2023/07/10 10:12:29;;;;;;;2.03;1.40;;;15.60;99.90;;;;;;5002513;28;20215;-92
2023/07/10 10:15:06;;;;;;;4.03;2.78;;;15.60;99.90;;;;;;4997682;28;20195;-93
2023/07/10 10:17:44;;;;;;;2.67;1.65;;;15.70;99.90;;;;;;5014470;28;20186;-93
2023/07/10 10:20:21;;;;;;;3.00;2.70;;;15.70;99.90;;;;;;5011685;28;20210;-91
2023/07/10 10:22:58;;;;;;;5.00;3.10;;;15.60;99.90;;;;;;5013812;28;20219;-87
2023/07/10 10:25:37;;;;;;;7.32;4.25;;;15.70;99.90;;;;;;4980566;28;20670;-90
2023/07/10 10:28:24;;;;;;;5.22;3.00;;;15.70;99.90;;;;;;4980748;28;20199;-91
2023/07/10 10:31:00;;;;;;;4.75;2.97;;;15.90;99.90;;;;;;4993566;28;20242;-91
2023/07/10 10:33:38;;;;;;;15.68;6.43;;;16.00;99.90;;;;;;4996582;28;20198;-93
2023/07/10 10:36:23;;;;;;;5.00;2.50;;;16.00;99.90;;;;;;4992557;28;20290;-93
2023/07/10 10:39:07;;;;;;;4.72;2.53;;;15.80;99.90;;;;;;4976854;28;20267;-93
2023/07/10 10:41:54;;;;;;;7.75;3.03;;;15.70;99.90;;;;;;4982850;28;20203;-93
2023/07/10 10:44:43;;;;;;;3.55;2.60;;;15.50;99.90;;;;;;4978521;28;20203;-93
2023/07/10 10:47:29;;;;;;;4.68;2.58;;;15.40;99.90;;;;;;4997721;28;20203;-93
2023/07/10 10:50:15;;;;;;;5.03;2.83;;;15.40;99.90;;;;;;4983152;28;20199;-93
2023/07/10 10:53:00;;;;;;;3.58;2.42;;;15.30;99.90;;;;;;4991362;28;20721;-93
2023/07/10 10:55:56;;;;;;;4.78;2.55;;;15.20;99.90;;;;;;4960307;28;20199;-93
2023/07/10 10:58:41;;;;;;;1.83;1.30;;;15.20;99.90;;;;;;4970283;28;20229;-94
2023/07/10 11:01:34;;;;;;;2.20;1.52;;;15.20;99.90;;;;;;4998041;28;20191;-93
2023/07/10 11:04:19;;;;;;;2.90;0.90;;;15.10;99.90;;;;;;4993822;28;20207;-91
2023/07/10 11:06:55;;;;;;;1.83;0.93;;;15.10;99.90;;;;;;4974800;28;20207;-92
2023/07/10 11:09:33;;;;;;;1.52;0.93;;;15.10;99.90;;;;;;4980706;28;20218;-93
2023/07/10 11:12:13;;;;;;;1.08;0.82;;;15.00;99.90;;;;;;4978354;28;20230;-94
2023/07/10 11:14:53;;;;;;;3.00;1.30;;;15.00;99.90;;;;;;4981235;28;20203;-95
2023/07/10 11:17:59;;;;;;;1.63;1.20;;;15.10;99.90;;;;;;4988057;28;20203;-92
2023/07/10 11:23:50;;;;;;;2.75;1.08;;;15.10;99.90;;;;;;4986395;28;20211;-94
2023/07/10 11:26:44;;;;;;;3.45;1.35;;;15.00;99.90;;;;;;4971910;29;20660;-94
2023/07/10 11:29:47;;;;;;;1.42;1.10;;;15.00;99.90;;;;;;4993672;28;20199;-93
2023/07/10 11:35:30;;;;;;;1.35;1.20;;;14.90;99.90;;;;;;4992289;28;20259;-94
2023/07/10 11:38:30;;;;;;;1.30;1.00;;;15.00;99.90;;;;;;4990589;28;20238;-95
2023/07/10 11:44:49;;;;;;;2.60;0.95;;;15.00;99.90;;;;;;4948271;28;20232;-93
2023/07/10 11:48:15;;;;;;;1.50;0.90;;;14.90;99.90;;;;;;4987917;28;20199;-92
2023/07/10 11:50:57;;;;;;;1.50;0.93;;;14.90;99.90;;;;;;4991881;28;20275;-93
2023/07/10 11:53:40;;;;;;;1.40;0.80;;;14.90;99.90;;;;;;5016671;28;20269;-95
2023/07/10 11:56:42;;;;;;;0.90;0.80;;;14.90;99.90;;;;;;5019794;28;20286;-95
2023/07/10 12:00:03;;;;;;;0.95;0.88;;;14.90;99.90;;;;;;5027693;28;20290;-94
2023/07/10 12:11:53;;;;;;;1.05;0.95;;;14.80;99.90;;;;;;5016862;28;20222;-93
2023/07/10 12:14:43;;;;;;;1.48;1.02;;;14.80;99.90;;;;;;5028116;28;20208;-93
2023/07/10 12:17:29;;;;;;;1.42;0.98;;;14.80;99.90;;;;;;5013488;28;20226;-92
2023/07/10 12:20:41;;;;;;;1.27;1.05;;;14.70;99.90;;;;;;5008650;28;20189;-92
2023/07/10 12:34:53;;;;;;;0.70;0.60;;;14.50;99.90;;;;;;5014624;28;20190;-93
2023/07/10 12:37:37;;;;;;;0.82;0.70;;;14.50;99.90;;;;;;5145024;23;20233;-90
2023/07/10 12:43:26;;;;;;;0.63;0.63;;;14.40;99.90;;;;;;5042670;28;20217;-89
2023/07/10 12:46:07;;;;;;;1.20;0.80;;;14.40;99.90;;;;;;5024479;28;20209;-89
2023/07/10 12:57:49;;;;;;;2.13;0.75;;;14.20;99.90;;;;;;5029302;28;20252;-89
2023/07/10 13:03:34;;;;;;;1.45;0.80;;;14.10;99.90;;;;;;5044437;28;20189;-89
2023/07/10 13:06:43;;;;;;;0.70;0.60;;;14.10;99.90;;;;;;5047538;28;20254;-90
2023/07/10 13:09:43;;;;;;;2.10;0.77;;;14.10;99.90;;;;;;5038683;28;20314;-91
2023/07/10 13:12:25;;;;;;;0.85;0.70;;;14.10;99.90;;;;;;5172398;23;20316;-89
2023/07/10 13:15:02;;;;;;;1.27;0.68;;;14.10;99.90;;;;;;5034521;28;20205;-88
2023/07/10 13:17:41;;;;;;;1.10;0.57;;;14.10;99.90;;;;;;5018097;28;20208;-90
2023/07/10 13:20:22;;;;;;;1.83;0.60;;;14.00;99.90;;;;;;5034247;28;20215;-89
2023/07/10 13:22:58;;;;;;;0.88;0.60;;;14.00;99.90;;;;;;5036285;28;20198;-92
2023/07/10 13:25:34;;;;;;;1.20;0.65;;;14.00;99.90;;;;;;5041692;28;20205;-91
2023/07/10 13:28:21;;;;;;;0.88;0.50;;;14.00;99.90;;;;;;5051872;28;20302;-91
2023/07/10 13:30:56;;;;;;;0.75;0.70;;;14.10;99.90;;;;;;5023486;28;20197;-90
2023/07/10 13:33:29;;;;;;;1.13;0.80;;;14.10;99.90;;;;;;5019584;28;20648;-91
2023/07/10 13:36:05;;;;;;;0.80;0.63;;;14.00;99.90;;;;;;5014884;28;20202;-90
2023/07/10 13:38:37;;;;;;;1.55;0.80;;;14.00;99.90;;;;;;5036105;28;20201;-91
2023/07/10 13:41:13;;;;;;;1.27;0.60;;;13.90;99.90;;;;;;5038322;28;20247;-90
2023/07/10 13:43:47;;;;;;;1.45;0.70;;;13.80;99.90;;;;;;5035677;28;20215;-90
2023/07/10 13:46:32;;;;;;;1.10;0.60;;;13.90;99.90;;;;;;5028463;28;20212;-90
2023/07/10 13:49:09;;;;;;;1.60;0.68;;;13.80;99.90;;;;;;5034842;28;20232;-90
2023/07/10 13:51:41;;;;;;;1.40;0.80;;;13.90;99.90;;;;;;5038244;28;20236;-90
2023/07/10 13:54:15;;;;;;;1.02;0.80;;;13.90;99.90;;;;;;5020543;28;20211;-91
2023/07/10 13:56:48;;;;;;;1.13;0.95;;;13.80;99.90;;;;;;5037488;28;20198;-91
2023/07/10 13:59:24;;;;;;;2.10;0.80;;;13.90;99.90;;;;;;5036498;28;20280;-91
2023/07/10 14:01:59;;;;;;;2.78;0.90;;;13.80;99.90;;;;;;5048972;28;20224;-90
2023/07/10 14:04:31;;;;;;;1.30;0.80;;;13.80;99.90;;;;;;5044898;28;20211;-90
2023/07/10 14:07:06;;;;;;;0.85;0.70;;;13.80;99.90;;;;;;5049379;28;20193;-90
2023/07/10 14:09:37;;;;;;;0.73;0.68;;;13.80;99.90;;;;;;5039710;28;20283;-90
2023/07/10 14:12:14;;;;;;;1.65;0.70;;;13.80;99.90;;;;;;5031804;28;20237;-90
2023/07/10 14:14:46;;;;;;;0.50;0.50;;;13.80;99.90;;;;;;5032106;28;20236;-91
2023/07/10 14:17:26;;;;;;;1.13;0.70;;;13.80;99.90;;;;;;5038651;28;20197;-91
2023/07/10 14:19:57;;;;;;;1.55;0.80;;;13.70;99.90;;;;;;5037378;28;20201;-90